Wetterstation Vordersexau
Wetterdaten: Woche 08.10.12 - 14.10.12 (KW41)
Datum Zeit Temp. A. Feuchte A. Luftdruck Regen Wind Richtung Taupunkt Windchill Windben
08.10.2012 00:00 5,6 C 82 % 1021,3 hPa 0,0 l/m 0,0 km/h SO 2,8 C 5,6 C 0,0 km/h
08.10.2012 01:00 6,8 C 79 % 1021,0 hPa 0,0 l/m 0,0 km/h SO 3,4 C 6,8 C 0,0 km/h
08.10.2012 02:00 6,6 C 78 % 1021,3 hPa 0,0 l/m 0,0 km/h NO 3,0 C 6,6 C 0,0 km/h
08.10.2012 03:00 6,4 C 78 % 1020,8 hPa 0,0 l/m 0,0 km/h N 2,8 C 6,4 C 0,0 km/h
08.10.2012 04:00 6,3 C 77 % 1020,4 hPa 0,0 l/m 0,0 km/h S-SO 2,6 C 6,3 C 0,0 km/h
08.10.2012 05:00 6,6 C 76 % 1020,1 hPa 0,0 l/m 0,0 km/h SO 2,7 C 6,6 C 0,0 km/h
08.10.2012 06:00 6,4 C 76 % 1019,3 hPa 0,0 l/m 1,9 km/h S-SO 2,5 C 6,4 C 1,1 km/h
08.10.2012 07:00 4,9 C 79 % 1019,0 hPa 0,0 l/m 2,6 km/h SO 1,6 C 4,9 C 1,4 km/h
08.10.2012 08:00 5,9 C 76 % 1018,7 hPa 0,0 l/m 0,0 km/h S-SO 2,0 C 5,9 C 0,0 km/h
08.10.2012 09:00 8,9 C 73 % 1018,4 hPa 0,0 l/m 8,4 km/h W-NW 4,3 C 7,4 C 4,7 km/h
08.10.2012 10:00 11,5 C 84 % 1018,6 hPa 0,0 l/m 0,0 km/h W-SW 8,9 C 11,5 C 0,0 km/h
08.10.2012 11:00 12,8 C 77 % 1018,0 hPa 0,0 l/m 0,0 km/h N-NW 8,9 C 12,8 C 0,0 km/h
08.10.2012 12:00 15,0 C 71 % 1017,5 hPa 0,0 l/m 0,0 km/h NW 9,8 C 15,0 C 0,0 km/h
08.10.2012 13:00 15,1 C 69 % 1017,2 hPa 0,0 l/m 1,9 km/h NW 9,5 C 15,1 C 1,1 km/h
08.10.2012 14:00 14,8 C 72 % 1016,5 hPa 0,0 l/m 0,6 km/h W 9,8 C 14,8 C 0,4 km/h
08.10.2012 15:00 14,8 C 72 % 1015,6 hPa 0,0 l/m 0,0 km/h W 9,8 C 14,8 C 0,0 km/h
08.10.2012 16:00 13,6 C 76 % 1015,2 hPa 0,0 l/m 0,0 km/h W 9,4 C 13,6 C 0,0 km/h
08.10.2012 17:00 12,5 C 81 % 1014,6 hPa 0,4 l/m 0,0 km/h W 9,3 C 12,5 C 0,0 km/h
08.10.2012 18:00 11,9 C 82 % 1013,9 hPa 0,0 l/m 0,0 km/h O-SO 8,9 C 11,9 C 0,0 km/h
08.10.2012 19:00 11,5 C 83 % 1013,8 hPa 0,0 l/m 3,9 km/h SO 8,7 C 11,5 C 2,2 km/h
08.10.2012 20:00 11,3 C 83 % 1013,4 hPa 0,0 l/m 0,0 km/h O-SO 8,5 C 11,3 C 0,0 km/h
08.10.2012 21:00 11,4 C 82 % 1012,7 hPa 0,0 l/m 0,0 km/h O 8,4 C 11,4 C 0,0 km/h
08.10.2012 22:00 11,6 C 81 % 1012,0 hPa 0,0 l/m 0,0 km/h SO 8,5 C 11,6 C 0,0 km/h
08.10.2012 23:00 11,8 C 80 % 1011,2 hPa 0,0 l/m 0,0 km/h SO 8,5 C 11,8 C 0,0 km/h
09.10.2012 00:00 11,9 C 78 % 1010,6 hPa 0,0 l/m 0,0 km/h O-SO 8,2 C 11,9 C 0,0 km/h
09.10.2012 01:00 12,2 C 77 % 1009,6 hPa 0,7 l/m 0,0 km/h NO 8,3 C 12,2 C 0,0 km/h
09.10.2012 02:00 13,1 C 72 % 1009,0 hPa 0,4 l/m 0,0 km/h N-NO 8,2 C 13,1 C 0,0 km/h
09.10.2012 03:00 13,8 C 69 % 1008,2 hPa 0,0 l/m 0,0 km/h W-SW 8,2 C 13,8 C 0,0 km/h
09.10.2012 04:00 14,9 C 64 % 1007,8 hPa 1,8 l/m 1,9 km/h W-NW 8,2 C 14,9 C 1,1 km/h
09.10.2012 05:00 14,8 C 62 % 1008,2 hPa 0,7 l/m 0,0 km/h S-SW 7,6 C 14,8 C 0,0 km/h
09.10.2012 06:00 14,3 C 61 % 1008,2 hPa 0,7 l/m 9,1 km/h S-SW 6,9 C 12,8 C 5,0 km/h
09.10.2012 07:00 13,9 C 62 % 1008,3 hPa 1,8 l/m 7,1 km/h W-NW 6,7 C 13,5 C 4,0 km/h
09.10.2012 08:00 13,8 C 62 % 1008,9 hPa 1,1 l/m 0,0 km/h W 6,6 C 13,8 C 0,0 km/h
09.10.2012 09:00 14,2 C 61 % 1009,3 hPa 1,1 l/m 0,6 km/h W 6,8 C 14,2 C 0,4 km/h
09.10.2012 10:00 15,3 C 59 % 1009,8 hPa 1,8 l/m 0,6 km/h W-SW 7,3 C 15,3 C 0,4 km/h
09.10.2012 11:00 16,3 C 60 % 1010,1 hPa 0,7 l/m 0,0 km/h W-SW 8,5 C 16,3 C 0,0 km/h
09.10.2012 12:00 17,0 C 75 % 1010,6 hPa 0,0 l/m 1,3 km/h SW 12,5 C 17,0 C 0,7 km/h
09.10.2012 13:00 17,2 C 77 % 1010,5 hPa 0,0 l/m 8,4 km/h N-NW 13,1 C 16,2 C 4,7 km/h
09.10.2012 14:00 15,6 C 76 % 1010,5 hPa 2,5 l/m 3,2 km/h N-NO 11,4 C 15,6 C 1,8 km/h
09.10.2012 15:00 15,3 C 75 % 1010,9 hPa 1,8 l/m 0,0 km/h W-NW 10,9 C 15,3 C 0,0 km/h
09.10.2012 16:00 15,7 C 75 % 1011,1 hPa 0,7 l/m 0,0 km/h N 11,3 C 15,7 C 0,0 km/h
09.10.2012 17:00 15,2 C 79 % 1011,6 hPa 0,7 l/m 0,0 km/h NW 11,6 C 15,2 C 0,0 km/h
09.10.2012 18:00 14,4 C 78 % 1012,0 hPa 0,0 l/m 0,0 km/h N 10,6 C 14,4 C 0,0 km/h
09.10.2012 19:00 13,8 C 78 % 1012,3 hPa 0,0 l/m 0,0 km/h N 10,0 C 13,8 C 0,0 km/h
09.10.2012 20:00 13,4 C 76 % 1012,8 hPa 0,0 l/m 0,0 km/h N-NW 9,3 C 13,4 C 0,0 km/h
09.10.2012 21:00 13,1 C 74 % 1012,9 hPa 0,0 l/m 0,0 km/h NW 8,6 C 13,1 C 0,0 km/h
09.10.2012 22:00 12,9 C 72 % 1012,9 hPa 0,0 l/m 0,0 km/h W 8,0 C 12,9 C 0,0 km/h
09.10.2012 23:00 12,5 C 71 % 1013,3 hPa 0,0 l/m 0,0 km/h W 7,4 C 12,5 C 0,0 km/h
10.10.2012 00:00 12,3 C 69 % 1012,8 hPa 0,0 l/m 0,0 km/h W 6,8 C 12,3 C 0,0 km/h
10.10.2012 01:00 11,9 C 68 % 1012,9 hPa 0,0 l/m 1,3 km/h W 6,2 C 11,9 C 0,7 km/h
10.10.2012 02:00 11,4 C 68 % 1012,5 hPa 0,0 l/m 0,0 km/h W 5,7 C 11,4 C 0,0 km/h
10.10.2012 03:00 11,0 C 70 % 1012,3 hPa 0,0 l/m 0,0 km/h W-NW 5,7 C 11,0 C 0,0 km/h
10.10.2012 04:00 10,4 C 72 % 1012,0 hPa 0,0 l/m 0,0 km/h W 5,6 C 10,4 C 0,0 km/h
10.10.2012 05:00 9,9 C 70 % 1011,6 hPa 0,0 l/m 0,0 km/h W 4,7 C 9,9 C 0,0 km/h
10.10.2012 06:00 9,9 C 69 % 1011,3 hPa 0,0 l/m 0,0 km/h W-NW 4,5 C 9,9 C 0,0 km/h
10.10.2012 07:00 9,6 C 69 % 1010,9 hPa 0,0 l/m 0,0 km/h W-NW 4,2 C 9,6 C 0,0 km/h
10.10.2012 08:00 9,6 C 68 % 1011,1 hPa 0,4 l/m 0,0 km/h W 4,0 C 9,6 C 0,0 km/h
10.10.2012 09:00 9,8 C 66 % 1010,9 hPa 0,4 l/m 0,0 km/h W 3,8 C 9,8 C 0,0 km/h
10.10.2012 10:00 10,6 C 66 % 1011,3 hPa 0,0 l/m 6,5 km/h N-NW 4,5 C 10,6 C 3,6 km/h
10.10.2012 11:00 10,2 C 76 % 1011,8 hPa 0,0 l/m 0,0 km/h W-NW 6,2 C 10,2 C 0,0 km/h
10.10.2012 12:00 9,8 C 77 % 1012,1 hPa 0,0 l/m 1,3 km/h W-NW 6,0 C 9,8 C 0,7 km/h
10.10.2012 13:00 10,5 C 77 % 1012,0 hPa 0,4 l/m 0,0 km/h W 6,6 C 10,5 C 0,0 km/h
10.10.2012 14:00 10,8 C 77 % 1011,7 hPa 1,8 l/m 0,0 km/h W 6,9 C 10,8 C 0,0 km/h
10.10.2012 15:00 10,8 C 77 % 1011,7 hPa 0,7 l/m 0,0 km/h W-NW 6,9 C 10,8 C 0,0 km/h
10.10.2012 16:00 11,8 C 81 % 1011,8 hPa 0,4 l/m 0,0 km/h W-SW 8,6 C 11,8 C 0,0 km/h
10.10.2012 17:00 12,1 C 84 % 1011,6 hPa 0,0 l/m 0,0 km/h W 9,5 C 12,1 C 0,0 km/h
10.10.2012 18:00 11,3 C 82 % 1011,9 hPa 0,0 l/m 0,0 km/h W-NW 8,3 C 11,3 C 0,0 km/h
10.10.2012 19:00 10,5 C 79 % 1012,3 hPa 0,0 l/m 0,0 km/h SW 7,0 C 10,5 C 0,0 km/h
10.10.2012 20:00 10,5 C 75 % 1012,5 hPa 0,0 l/m 0,0 km/h SW 6,3 C 10,5 C 0,0 km/h
10.10.2012 21:00 10,5 C 72 % 1012,7 hPa 0,0 l/m 0,0 km/h W-SW 5,7 C 10,5 C 0,0 km/h
10.10.2012 22:00 10,6 C 71 % 1012,4 hPa 0,0 l/m 0,0 km/h W 5,6 C 10,6 C 0,0 km/h
10.10.2012 23:00 10,6 C 69 % 1012,5 hPa 0,0 l/m 0,0 km/h W 5,2 C 10,6 C 0,0 km/h
11.10.2012 00:00 10,6 C 67 % 1012,2 hPa 0,0 l/m 0,0 km/h W 4,7 C 10,6 C 0,0 km/h
11.10.2012 01:00 10,5 C 67 % 1011,9 hPa 0,0 l/m 0,0 km/h W 4,6 C 10,5 C 0,0 km/h
11.10.2012 02:00 10,6 C 66 % 1011,6 hPa 0,0 l/m 0,0 km/h W 4,5 C 10,6 C 0,0 km/h
11.10.2012 03:00 10,5 C 65 % 1011,2 hPa 0,0 l/m 0,0 km/h S-SW 4,2 C 10,5 C 0,0 km/h
11.10.2012 04:00 10,5 C 65 % 1010,6 hPa 0,0 l/m 0,0 km/h S-SW 4,2 C 10,5 C 0,0 km/h
11.10.2012 05:00 10,6 C 65 % 1010,2 hPa 0,0 l/m 0,0 km/h W-SW 4,3 C 10,6 C 0,0 km/h
11.10.2012 06:00 10,6 C 64 % 1010,0 hPa 0,0 l/m 0,0 km/h N 4,1 C 10,6 C 0,0 km/h
11.10.2012 07:00 10,0 C 64 % 1009,7 hPa 0,0 l/m 0,0 km/h NW 3,5 C 10,0 C 0,0 km/h
11.10.2012 08:00 10,1 C 63 % 1009,5 hPa 0,0 l/m 0,0 km/h W-NW 3,4 C 10,1 C 0,0 km/h
11.10.2012 09:00 10,6 C 62 % 1009,4 hPa 0,0 l/m 0,0 km/h N-NW 3,6 C 10,6 C 0,0 km/h
11.10.2012 10:00 13,1 C 68 % 1009,2 hPa 0,0 l/m 0,0 km/h W-NW 7,3 C 13,1 C 0,0 km/h
11.10.2012 11:00 13,3 C 85 % 1009,2 hPa 0,0 l/m 1,9 km/h N-NW 10,8 C 13,3 C 1,1 km/h
11.10.2012 12:00 13,5 C 85 % 1008,8 hPa 0,0 l/m 0,0 km/h N-NO 11,0 C 13,5 C 0,0 km/h
11.10.2012 13:00 14,2 C 83 % 1008,4 hPa 0,0 l/m 0,0 km/h S-SO 11,4 C 14,2 C 0,0 km/h
11.10.2012 14:00 16,4 C 81 % 1007,7 hPa 0,0 l/m 0,0 km/h N 13,1 C 16,4 C 0,0 km/h
11.10.2012 15:00 18,0 C 77 % 1007,5 hPa 0,0 l/m 0,0 km/h SO 13,9 C 18,0 C 0,0 km/h
11.10.2012 16:00 21,0 C 70 % 1006,9 hPa 0,0 l/m 0,0 km/h W-NW 15,3 C 21,0 C 0,0 km/h
11.10.2012 17:00 20,8 C 66 % 1006,6 hPa 0,0 l/m 0,0 km/h W 14,2 C 20,8 C 0,0 km/h
11.10.2012 18:00 19,3 C 66 % 1006,3 hPa 0,0 l/m 0,0 km/h W 12,8 C 19,3 C 0,0 km/h
11.10.2012 19:00 11,6 C 82 % 1006,1 hPa 0,0 l/m 0,0 km/h SO 8,6 C 11,6 C 0,0 km/h
11.10.2012 20:00 10,4 C 84 % 1006,2 hPa 0,0 l/m 0,0 km/h SO 7,8 C 10,4 C 0,0 km/h
11.10.2012 21:00 9,3 C 84 % 1006,5 hPa 0,0 l/m 0,0 km/h O-NO 6,7 C 9,3 C 0,0 km/h
11.10.2012 22:00 11,0 C 80 % 1006,9 hPa 0,0 l/m 0,0 km/h S-SO 7,7 C 11,0 C 0,0 km/h
11.10.2012 23:00 10,9 C 79 % 1006,1 hPa 0,0 l/m 0,0 km/h S 7,4 C 10,9 C 0,0 km/h
12.10.2012 00:00 10,9 C 77 % 1006,2 hPa 0,0 l/m 0,0 km/h S-SO 7,0 C 10,9 C 0,0 km/h
12.10.2012 01:00 9,6 C 78 % 1005,9 hPa 0,0 l/m 0,0 km/h S-SO 6,0 C 9,6 C 0,0 km/h
12.10.2012 02:00 8,9 C 77 % 1006,0 hPa 0,0 l/m 0,0 km/h N-NO 5,1 C 8,9 C 0,0 km/h
12.10.2012 03:00 10,1 C 74 % 1005,5 hPa 0,0 l/m 0,0 km/h N-NO 5,7 C 10,1 C 0,0 km/h
12.10.2012 04:00 10,8 C 71 % 1005,3 hPa 0,0 l/m 0,0 km/h SO 5,8 C 10,8 C 0,0 km/h
12.10.2012 05:00 11,1 C 70 % 1005,4 hPa 0,4 l/m 0,0 km/h O-NO 5,8 C 11,1 C 0,0 km/h
12.10.2012 06:00 11,5 C 67 % 1005,1 hPa 0,0 l/m 0,0 km/h NO 5,6 C 11,5 C 0,0 km/h
12.10.2012 07:00 12,6 C 65 % 1005,1 hPa 0,4 l/m 0,0 km/h O-SO 6,2 C 12,6 C 0,0 km/h
12.10.2012 08:00 13,1 C 62 % 1005,5 hPa 0,7 l/m 0,0 km/h S-SW 6,0 C 13,1 C 0,0 km/h
12.10.2012 09:00 14,5 C 60 % 1006,0 hPa 0,0 l/m 2,6 km/h W 6,8 C 14,5 C 1,4 km/h
12.10.2012 10:00 16,7 C 84 % 1006,4 hPa 0,0 l/m 0,0 km/h W 14,0 C 16,7 C 0,0 km/h
12.10.2012 11:00 14,8 C 82 % 1007,3 hPa 0,4 l/m 0,0 km/h W 11,8 C 14,8 C 0,0 km/h
12.10.2012 12:00 16,8 C 84 % 1007,3 hPa 0,4 l/m 0,0 km/h W 14,1 C 16,8 C 0,0 km/h
12.10.2012 13:00 15,4 C 84 % 1008,2 hPa 0,0 l/m 1,3 km/h SW 12,7 C 15,4 C 0,7 km/h
12.10.2012 14:00 15,6 C 83 % 1008,9 hPa 0,0 l/m 22,0 km/h NW 12,7 C 10,1 C 12,2 km/h
12.10.2012 15:00 14,2 C 84 % 1009,9 hPa 0,4 l/m 8,4 km/h W-NW 11,5 C 13,0 C 4,7 km/h
12.10.2012 16:00 12,6 C 82 % 1011,2 hPa 2,5 l/m 0,0 km/h S 9,6 C 12,6 C 0,0 km/h
12.10.2012 17:00 14,8 C 84 % 1012,1 hPa 0,4 l/m 2,6 km/h S 12,1 C 14,8 C 1,4 km/h
12.10.2012 18:00 12,7 C 83 % 1012,7 hPa 0,0 l/m 0,6 km/h W-NW 9,9 C 12,7 C 0,4 km/h
12.10.2012 19:00 11,4 C 84 % 1013,5 hPa 0,0 l/m 1,9 km/h W-NW 8,8 C 11,4 C 1,1 km/h
12.10.2012 20:00 9,3 C 85 % 1014,1 hPa 0,0 l/m 0,0 km/h N-NO 6,9 C 9,3 C 0,0 km/h
12.10.2012 21:00 7,8 C 83 % 1014,7 hPa 0,0 l/m 0,0 km/h N-NO 5,1 C 7,8 C 0,0 km/h
12.10.2012 22:00 7,2 C 81 % 1015,2 hPa 0,0 l/m 0,0 km/h O-SO 4,2 C 7,2 C 0,0 km/h
12.10.2012 23:00 6,1 C 81 % 1015,7 hPa 0,0 l/m 0,0 km/h NO 3,1 C 6,1 C 0,0 km/h
13.10.2012 00:00 6,0 C 80 % 1015,8 hPa 0,0 l/m 0,0 km/h NO 2,8 C 6,0 C 0,0 km/h
13.10.2012 01:00 5,4 C 80 % 1015,9 hPa 0,0 l/m 0,0 km/h S-SO 2,2 C 5,4 C 0,0 km/h
13.10.2012 02:00 4,8 C 80 % 1015,5 hPa 0,0 l/m 0,0 km/h O-NO 1,6 C 4,8 C 0,0 km/h
13.10.2012 03:00 5,1 C 79 % 1015,1 hPa 0,0 l/m 0,0 km/h SO 1,8 C 5,1 C 0,0 km/h
13.10.2012 04:00 4,7 C 78 % 1015,1 hPa 0,0 l/m 0,0 km/h SO 1,2 C 4,7 C 0,0 km/h
13.10.2012 05:00 4,6 C 78 % 1014,6 hPa 0,0 l/m 0,0 km/h SO 1,1 C 4,6 C 0,0 km/h
13.10.2012 06:00 4,3 C 77 % 1014,0 hPa 0,0 l/m 0,0 km/h SO 0,6 C 4,3 C 0,0 km/h
13.10.2012 07:00 4,3 C 76 % 1013,9 hPa 0,0 l/m 0,0 km/h S-SO 0,5 C 4,3 C 0,0 km/h
13.10.2012 08:00 4,6 C 74 % 1013,3 hPa 0,0 l/m 0,0 km/h SO 0,4 C 4,6 C 0,0 km/h
13.10.2012 09:00 6,8 C 68 % 1013,0 hPa 0,0 l/m 0,0 km/h O-SO 1,3 C 6,8 C 0,0 km/h
13.10.2012 10:00 10,6 C 55 % 1012,7 hPa 0,0 l/m 0,0 km/h N-NO 1,9 C 10,6 C 0,0 km/h
13.10.2012 11:00 16,3 C 83 % 1011,8 hPa 0,0 l/m 0,0 km/h W 13,4 C 16,3 C 0,0 km/h
13.10.2012 12:00 18,4 C 68 % 1011,2 hPa 0,0 l/m 0,0 km/h N-NO 12,4 C 18,4 C 0,0 km/h
13.10.2012 13:00 17,6 C 65 % 1010,4 hPa 0,0 l/m 5,2 km/h W 10,9 C 17,6 C 2,9 km/h
13.10.2012 14:00 17,3 C 64 % 1009,7 hPa 0,0 l/m 0,0 km/h SO 10,4 C 17,3 C 0,0 km/h
13.10.2012 15:00 20,1 C 55 % 1008,8 hPa 0,0 l/m 0,0 km/h W-NW 10,8 C 20,1 C 0,0 km/h
13.10.2012 16:00 19,2 C 52 % 1008,4 hPa 0,0 l/m 0,0 km/h W-SW 9,1 C 19,2 C 0,0 km/h
13.10.2012 17:00 18,7 C 51 % 1007,9 hPa 0,0 l/m 2,6 km/h S 8,4 C 18,7 C 1,4 km/h
13.10.2012 18:00 12,1 C 66 % 1007,7 hPa 0,0 l/m 0,0 km/h S-SO 5,9 C 12,1 C 0,0 km/h
13.10.2012 19:00 11,0 C 73 % 1008,0 hPa 0,0 l/m 1,3 km/h W-SW 6,4 C 11,0 C 0,7 km/h
13.10.2012 20:00 11,3 C 72 % 1007,9 hPa 0,0 l/m 0,0 km/h S-SW 6,4 C 11,3 C 0,0 km/h
13.10.2012 21:00 11,2 C 70 % 1007,7 hPa 0,0 l/m 5,8 km/h S 5,9 C 11,2 C 3,2 km/h
13.10.2012 22:00 11,5 C 67 % 1007,6 hPa 0,0 l/m 0,0 km/h W 5,6 C 11,5 C 0,0 km/h
13.10.2012 23:00 11,3 C 68 % 1007,2 hPa 0,0 l/m 0,0 km/h W 5,6 C 11,3 C 0,0 km/h
14.10.2012 00:00 11,2 C 69 % 1007,1 hPa 0,0 l/m 1,3 km/h W 5,7 C 11,2 C 0,7 km/h
14.10.2012 01:00 11,9 C 67 % 1006,6 hPa 0,0 l/m 8,4 km/h W-SW 6,0 C 10,6 C 4,7 km/h
14.10.2012 02:00 11,4 C 70 % 1006,4 hPa 0,0 l/m 0,6 km/h SW 6,1 C 11,4 C 0,4 km/h
14.10.2012 03:00 9,6 C 81 % 1006,3 hPa 0,0 l/m 6,5 km/h S-SW 6,5 C 9,6 C 3,6 km/h
14.10.2012 04:00 8,9 C 84 % 1006,1 hPa 0,7 l/m 0,0 km/h W-NW 6,3 C 8,9 C 0,0 km/h
14.10.2012 05:00 8,1 C 84 % 1006,6 hPa 3,6 l/m 0,0 km/h SO 5,6 C 8,1 C 0,0 km/h
14.10.2012 06:00 7,9 C 83 % 1005,5 hPa 1,1 l/m 4,5 km/h SO 5,2 C 7,9 C 2,5 km/h
14.10.2012 07:00 7,8 C 82 % 1005,1 hPa 0,4 l/m 0,0 km/h O-SO 4,9 C 7,8 C 0,0 km/h
14.10.2012 08:00 8,3 C 80 % 1004,1 hPa 0,0 l/m 0,0 km/h O-NO 5,1 C 8,3 C 0,0 km/h
14.10.2012 09:00 9,3 C 80 % 1003,7 hPa 0,0 l/m 0,0 km/h NO 6,0 C 9,3 C 0,0 km/h
14.10.2012 10:00 9,9 C 80 % 1002,8 hPa 0,0 l/m 0,0 km/h SO 6,6 C 9,9 C 0,0 km/h
14.10.2012 11:00 11,8 C 81 % 1002,0 hPa 0,0 l/m 0,0 km/h S-SO 8,6 C 11,8 C 0,0 km/h
14.10.2012 12:00 13,2 C 84 % 1001,0 hPa 0,0 l/m 3,9 km/h O 10,6 C 13,2 C 2,2 km/h
14.10.2012 13:00 14,4 C 80 % 999,4 hPa 0,0 l/m 0,0 km/h NO 11,0 C 14,4 C 0,0 km/h
14.10.2012 14:00 17,3 C 72 % 998,3 hPa 0,0 l/m 0,0 km/h NO 12,2 C 17,3 C 0,0 km/h
14.10.2012 15:00 16,7 C 72 % 997,4 hPa 0,0 l/m 0,0 km/h NO 11,6 C 16,7 C 0,0 km/h
14.10.2012 16:00 16,5 C 71 % 996,8 hPa 0,0 l/m 0,0 km/h W-NW 11,2 C 16,5 C 0,0 km/h
14.10.2012 17:00 13,8 C 79 % 997,1 hPa 0,0 l/m 0,0 km/h SO 10,2 C 13,8 C 0,0 km/h
14.10.2012 18:00 12,4 C 83 % 996,7 hPa 0,0 l/m 0,0 km/h SO 9,6 C 12,4 C 0,0 km/h
14.10.2012 19:00 11,4 C 84 % 997,4 hPa 0,0 l/m 0,0 km/h S 8,8 C 11,4 C 0,0 km/h
14.10.2012 20:00 10,8 C 84 % 997,6 hPa 0,4 l/m 1,9 km/h SO 8,2 C 10,8 C 1,1 km/h
14.10.2012 21:00 10,4 C 84 % 996,9 hPa 0,0 l/m 1,9 km/h S 7,8 C 10,4 C 1,1 km/h
14.10.2012 22:00 12,0 C 80 % 996,3 hPa 0,0 l/m 3,9 km/h SW 8,7 C 12,0 C 2,2 km/h
14.10.2012 23:00 13,8 C 68 % 996,0 hPa 0,0 l/m 11,0 km/h W 8,0 C 11,3 C 6,1 km/h
Min-Datum _ 13.10.12 13.10.12 14.10.12 - 08.10.12 - 13.10.12 13.10.12 08.10.12
_ Min-Zeit 06:19 17:19 23:19 - 00:19 - 08:19 06:19 00:19
Minimum _ 4,3 C 51 % 996,0 hPa - 0,0 km/h - 0,4 C 4,3 C 0,0 km/h
Max-Datum _ 11.10.12 11.10.12 08.10.12 14.10.12 12.10.12 - 11.10.12 11.10.12 12.10.12
_ Max-Zeit 16:19 11:19 00:19 05:19 14:19 - 16:19 16:19 14:19
Maximum _ 21,0 C 85 % 1021,3 hPa 3,6 l/m 22,0 km/h
NW
- 15,3 C 21,0 C 12,2 km/h
NW
Durchschnitt _ 11,8 C 74 % 1010,0 hPa #32,0 l/m 1,0 km/h W 7,3 C 11,7 C 0,5 km/h
www.sexauwetter.de